createdAt,value
2023-04-26T00:01:35.500Z,9.80
2023-04-26T00:04:04.880Z,9.77
2023-04-26T00:06:34.919Z,9.76
2023-04-26T00:09:04.960Z,9.70
2023-04-26T00:11:35.926Z,9.82
2023-04-26T00:14:05.060Z,10.00
2023-04-26T00:16:35.187Z,9.91
2023-04-26T00:19:05.063Z,9.88
2023-04-26T00:21:34.059Z,10.00
2023-04-26T00:24:02.734Z,10.14
2023-04-26T00:26:31.444Z,9.93
2023-04-26T00:29:00.434Z,9.99
2023-04-26T00:31:29.202Z,10.31
2023-04-26T00:33:59.227Z,10.34
2023-04-26T00:36:28.266Z,10.43
2023-04-26T00:38:56.898Z,10.17
2023-04-26T00:41:25.580Z,10.48
2023-04-26T00:43:54.627Z,10.59
2023-04-26T00:46:23.887Z,10.44
2023-04-26T00:48:53.297Z,10.26
2023-04-26T00:51:23.843Z,10.33
2023-04-26T00:53:52.592Z,10.21
2023-04-26T00:56:22.732Z,10.23
2023-04-26T00:58:54.252Z,10.03
2023-04-26T01:01:23.177Z,9.88
2023-04-26T01:03:52.429Z,9.81
2023-04-26T01:06:21.781Z,9.64
2023-04-26T01:08:53.740Z,9.74
2023-04-26T01:11:24.334Z,9.93
2023-04-26T01:13:53.121Z,9.83
2023-04-26T01:16:21.944Z,10.01
2023-04-26T01:18:52.921Z,9.90
2023-04-26T01:21:22.821Z,9.85
2023-04-26T01:23:53.387Z,9.86
2023-04-26T01:26:22.158Z,9.72
2023-04-26T01:28:51.260Z,9.65
2023-04-26T01:31:20.085Z,9.54
2023-04-26T01:33:48.850Z,9.63
2023-04-26T01:36:17.753Z,9.67
2023-04-26T01:38:46.412Z,9.39
2023-04-26T01:41:17.006Z,9.66
2023-04-26T01:43:46.062Z,9.52
2023-04-26T01:46:14.791Z,9.46
2023-04-26T01:48:43.966Z,9.46
2023-04-26T01:51:13.361Z,9.48
2023-04-26T01:53:42.120Z,9.55
2023-04-26T01:56:11.382Z,9.52
2023-04-26T01:58:41.768Z,9.27
2023-04-26T02:01:11.598Z,9.19
2023-04-26T02:03:40.645Z,9.04
2023-04-26T02:06:09.577Z,9.12
2023-04-26T02:08:38.458Z,9.19
2023-04-26T02:11:08.398Z,9.27
2023-04-26T02:13:38.420Z,9.13
2023-04-26T02:16:08.984Z,9.18
2023-04-26T02:18:37.728Z,9.55
2023-04-26T02:21:09.668Z,9.80
2023-04-26T02:23:38.610Z,9.84
2023-04-26T02:26:07.335Z,9.80
2023-04-26T02:28:36.818Z,9.63
2023-04-26T02:31:05.870Z,9.61
2023-04-26T02:33:36.083Z,9.71
2023-04-26T02:36:06.494Z,9.23
2023-04-26T02:38:36.366Z,9.20
2023-04-26T02:41:05.971Z,9.15
2023-04-26T02:43:34.807Z,9.12
2023-04-26T02:46:03.678Z,8.77
2023-04-26T02:48:32.808Z,8.94
2023-04-26T02:51:02.886Z,9.06
2023-04-26T02:53:31.825Z,9.25
2023-04-26T02:56:01.676Z,9.17
2023-04-26T02:58:30.480Z,8.98
2023-04-26T03:01:01.264Z,8.89
2023-04-26T03:03:31.107Z,8.75
2023-04-26T03:06:00.316Z,8.68
2023-04-26T03:08:30.475Z,8.95
2023-04-26T03:10:59.332Z,8.75
2023-04-26T03:13:30.028Z,8.80
2023-04-26T03:15:59.407Z,8.82
2023-04-26T03:18:28.473Z,8.85
2023-04-26T03:20:57.473Z,8.57
2023-04-26T03:23:26.466Z,8.83
2023-04-26T03:25:56.940Z,8.70
2023-04-26T03:28:26.061Z,8.74
2023-04-26T03:30:55.118Z,8.98
2023-04-26T03:33:23.912Z,8.91
2023-04-26T03:35:52.807Z,9.06
2023-04-26T03:38:22.496Z,9.21
2023-04-26T03:40:51.463Z,8.94
2023-04-26T03:43:21.568Z,9.03
2023-04-26T03:45:51.042Z,8.62
2023-04-26T03:48:19.787Z,9.00
2023-04-26T03:50:48.714Z,9.08
2023-04-26T03:53:17.802Z,9.22
2023-04-26T03:55:46.591Z,9.35
2023-04-26T03:58:17.431Z,9.32
2023-04-26T04:00:47.807Z,9.25
2023-04-26T04:03:17.114Z,9.23
2023-04-26T04:05:46.057Z,9.36
2023-04-26T04:08:15.705Z,9.57
2023-04-26T04:10:45.195Z,9.34
2023-04-26T04:13:13.862Z,9.31
2023-04-26T04:15:43.317Z,9.41
2023-04-26T04:18:13.679Z,8.92
2023-04-26T04:20:42.622Z,9.16
2023-04-26T04:23:11.314Z,9.24
2023-04-26T04:25:40.504Z,9.06
2023-04-26T04:28:09.634Z,9.00
2023-04-26T04:30:38.442Z,8.88
2023-04-26T04:33:07.522Z,8.63
2023-04-26T04:35:37.975Z,8.93
2023-04-26T04:38:07.221Z,8.88
2023-04-26T04:40:36.538Z,8.86
2023-04-26T04:43:05.191Z,8.93
2023-04-26T04:45:35.509Z,8.70
2023-04-26T04:48:05.276Z,8.48
2023-04-26T04:50:34.539Z,8.59
2023-04-26T04:53:04.833Z,9.22
2023-04-26T04:55:33.755Z,9.29
2023-04-26T04:58:03.713Z,9.92
2023-04-26T05:00:34.105Z,10.80
2023-04-26T05:03:03.806Z,10.92
2023-04-26T05:05:33.051Z,10.78
2023-04-26T05:08:01.862Z,11.33
2023-04-26T05:10:32.968Z,10.78
2023-04-26T05:13:01.852Z,10.95
2023-04-26T05:15:30.943Z,10.59
2023-04-26T05:18:01.182Z,10.63
2023-04-26T05:20:31.296Z,10.62
2023-04-26T05:23:00.433Z,10.44
2023-04-26T05:25:29.291Z,10.93
2023-04-26T05:27:59.596Z,11.18
2023-04-26T05:30:31.375Z,10.67
2023-04-26T05:33:00.520Z,10.71
2023-04-26T05:35:31.509Z,10.49
2023-04-26T05:38:00.128Z,10.22
2023-04-26T05:40:28.930Z,10.11
2023-04-26T05:42:59.286Z,10.19
2023-04-26T05:45:28.470Z,10.19
2023-04-26T05:47:57.239Z,10.09
2023-04-26T05:50:27.122Z,9.97
2023-04-26T05:52:56.003Z,10.20
2023-04-26T05:55:24.750Z,10.55
2023-04-26T05:57:54.036Z,10.08
2023-04-26T06:00:25.022Z,9.97
2023-04-26T06:02:54.390Z,9.98
2023-04-26T06:05:23.541Z,10.03
2023-04-26T06:07:52.608Z,9.76
2023-04-26T06:10:22.118Z,9.87
2023-04-26T06:12:51.749Z,9.79
2023-04-26T06:15:20.649Z,9.74
2023-04-26T06:17:51.000Z,9.73
2023-04-26T06:20:19.726Z,10.00
2023-04-26T06:22:48.445Z,10.48
2023-04-26T06:25:18.031Z,10.68
2023-04-26T06:27:46.720Z,10.91
2023-04-26T06:30:16.090Z,10.98
2023-04-26T06:32:46.055Z,10.84
2023-04-26T06:35:17.549Z,10.29
2023-04-26T06:37:46.563Z,9.97
2023-04-26T06:40:16.677Z,10.01
2023-04-26T06:42:45.453Z,10.00
2023-04-26T06:45:15.168Z,10.32
2023-04-26T06:47:44.189Z,10.43
2023-04-26T06:50:13.715Z,10.49
2023-04-26T06:52:43.972Z,10.37
2023-04-26T06:55:12.626Z,10.36
2023-04-26T06:57:41.347Z,10.40
2023-04-26T07:00:11.809Z,10.59
2023-04-26T07:02:40.647Z,10.37
2023-04-26T07:05:09.863Z,10.42
2023-04-26T07:07:38.937Z,10.41
2023-04-26T07:10:10.624Z,10.55
2023-04-26T07:12:39.581Z,10.61
2023-04-26T07:15:09.608Z,10.71
2023-04-26T07:17:38.406Z,10.38
2023-04-26T07:20:08.824Z,10.68
2023-04-26T07:22:37.687Z,10.54
2023-04-26T07:25:07.526Z,10.37
2023-04-26T07:27:37.875Z,10.49
2023-04-26T07:30:07.839Z,10.63
2023-04-26T07:32:37.666Z,10.44
2023-04-26T07:35:10.535Z,10.36
2023-04-26T07:37:39.618Z,10.53
2023-04-26T07:40:10.641Z,10.41
2023-04-26T07:42:40.935Z,10.58
2023-04-26T07:45:11.250Z,10.67
2023-04-26T07:47:40.160Z,11.03
2023-04-26T07:50:12.231Z,11.14
2023-04-26T07:52:42.241Z,11.59
2023-04-26T07:55:11.312Z,11.53
2023-04-26T07:57:41.774Z,11.46
2023-04-26T08:00:12.261Z,11.70
2023-04-26T08:02:44.897Z,11.21
2023-04-26T08:05:14.698Z,10.98
2023-04-26T08:07:44.248Z,10.70
2023-04-26T08:10:13.483Z,10.76
2023-04-26T08:12:43.917Z,10.79
2023-04-26T08:15:13.660Z,11.22
2023-04-26T08:17:42.639Z,10.95
2023-04-26T08:20:12.284Z,11.04
2023-04-26T08:22:40.984Z,11.32
2023-04-26T08:25:10.790Z,11.50
2023-04-26T08:27:39.962Z,11.54
2023-04-26T08:30:11.014Z,11.74
2023-04-26T08:32:39.789Z,11.61
2023-04-26T08:35:09.623Z,11.86
2023-04-26T08:37:38.914Z,11.47
2023-04-26T08:40:14.769Z,11.31
2023-04-26T08:42:44.378Z,11.47
2023-04-26T08:45:16.333Z,11.40
2023-04-26T08:47:46.247Z,11.36
2023-04-26T08:50:16.437Z,11.36
2023-04-26T08:52:45.603Z,11.83
2023-04-26T08:55:16.424Z,11.74
2023-04-26T08:57:47.521Z,11.91
2023-04-26T09:00:18.761Z,12.19
2023-04-26T09:02:49.998Z,12.19
2023-04-26T09:05:23.635Z,12.35
2023-04-26T09:07:53.257Z,12.42
2023-04-26T09:10:23.301Z,11.93
2023-04-26T09:12:53.588Z,11.91
2023-04-26T09:15:26.435Z,11.92
2023-04-26T09:17:55.858Z,12.18
2023-04-26T09:20:27.619Z,12.03
2023-04-26T09:23:08.105Z,12.15
2023-04-26T09:25:37.342Z,12.45
2023-04-26T09:28:20.541Z,12.57
2023-04-26T09:30:50.953Z,12.88
2023-04-26T09:33:20.061Z,13.00
2023-04-26T09:35:48.787Z,13.32
2023-04-26T09:38:19.358Z,12.90
2023-04-26T09:40:52.869Z,12.65
2023-04-26T09:43:22.713Z,12.68
2023-04-26T09:45:54.581Z,12.84
2023-04-26T09:48:25.828Z,12.81
2023-04-26T09:50:55.991Z,12.97
2023-04-26T09:53:29.550Z,13.15
2023-04-26T09:55:59.611Z,12.88
2023-04-26T09:58:28.332Z,13.25
2023-04-26T10:00:58.512Z,13.09
2023-04-26T10:03:28.118Z,12.94
2023-04-26T10:05:57.854Z,12.95
2023-04-26T10:08:26.870Z,13.25
2023-04-26T10:10:56.779Z,13.17
2023-04-26T10:13:25.963Z,12.94
2023-04-26T10:15:55.172Z,13.78
2023-04-26T10:18:25.363Z,13.68
2023-04-26T10:20:57.286Z,13.49
2023-04-26T10:23:26.559Z,12.75
2023-04-26T10:25:55.866Z,12.91
2023-04-26T10:29:02.676Z,12.92
2023-04-26T10:32:10.604Z,12.97
2023-04-26T10:34:41.665Z,12.69
2023-04-26T10:37:14.336Z,13.33
2023-04-26T10:39:43.888Z,13.36
2023-04-26T10:42:26.962Z,13.50
2023-04-26T10:44:56.591Z,13.19
2023-04-26T10:47:30.591Z,12.63
2023-04-26T10:50:08.770Z,12.91
2023-04-26T10:52:38.057Z,13.14
2023-04-26T10:55:07.927Z,12.86
2023-04-26T10:57:51.500Z,13.05
2023-04-26T11:00:32.325Z,13.02
2023-04-26T11:03:07.089Z,13.17
2023-04-26T11:05:56.016Z,13.37
2023-04-26T11:08:30.145Z,13.26
2023-04-26T11:11:10.182Z,13.54
2023-04-26T11:13:40.108Z,13.76
2023-04-26T11:16:09.664Z,13.95
2023-04-26T11:18:39.880Z,14.18
2023-04-26T11:21:11.226Z,14.49
2023-04-26T11:23:40.276Z,14.31
2023-04-26T11:26:10.410Z,13.85
2023-04-26T11:28:39.790Z,13.87
2023-04-26T11:31:08.615Z,13.63
2023-04-26T11:33:37.827Z,13.56
2023-04-26T11:36:07.235Z,13.07
2023-04-26T11:38:39.010Z,13.47
2023-04-26T11:41:10.479Z,13.54
2023-04-26T11:43:40.123Z,13.81
2023-04-26T11:46:10.485Z,13.92
2023-04-26T11:48:40.177Z,13.77
2023-04-26T11:51:10.544Z,13.42
2023-04-26T11:53:41.883Z,13.50
2023-04-26T11:56:17.814Z,13.44
2023-04-26T11:58:47.743Z,13.00
2023-04-26T12:01:24.235Z,13.10
2023-04-26T12:03:54.277Z,12.88
2023-04-26T12:06:30.805Z,13.20
2023-04-26T12:09:03.024Z,12.91
2023-04-26T12:11:31.771Z,13.17
2023-04-26T12:14:01.548Z,13.17
2023-04-26T12:16:30.501Z,13.00
2023-04-26T12:18:59.265Z,13.16
2023-04-26T12:21:30.724Z,13.43
2023-04-26T12:24:04.243Z,13.58
2023-04-26T12:26:45.795Z,14.29
2023-04-26T12:29:14.559Z,14.36
2023-04-26T12:31:43.892Z,14.30
2023-04-26T12:34:12.561Z,13.53
2023-04-26T12:36:43.304Z,13.56
2023-04-26T12:39:15.725Z,13.35
2023-04-26T12:41:45.099Z,12.92
2023-04-26T12:44:14.383Z,12.80
2023-04-26T12:46:43.284Z,13.10
2023-04-26T12:49:12.030Z,12.77
2023-04-26T12:51:41.086Z,12.99
2023-04-26T12:54:09.868Z,13.20
2023-04-26T12:56:43.853Z,13.42
2023-04-26T12:59:13.175Z,13.31
2023-04-26T13:01:42.040Z,13.07
2023-04-26T13:04:11.438Z,13.06
2023-04-26T13:06:40.575Z,13.47
2023-04-26T13:09:09.495Z,13.84
2023-04-26T13:11:42.141Z,14.14
2023-04-26T13:14:11.260Z,14.70
2023-04-26T13:16:43.757Z,14.67
2023-04-26T13:19:12.745Z,15.03
2023-04-26T13:21:42.104Z,15.25
2023-04-26T13:24:10.832Z,14.54
2023-04-26T13:26:41.221Z,14.63
2023-04-26T13:29:10.171Z,14.88
2023-04-26T13:31:40.034Z,14.64
2023-04-26T13:34:09.765Z,14.29
2023-04-26T13:36:38.450Z,14.08
2023-04-26T13:39:08.111Z,14.13
2023-04-26T13:41:37.267Z,13.65
2023-04-26T13:44:07.320Z,13.69
2023-04-26T13:46:36.354Z,14.00
2023-04-26T13:49:05.574Z,13.93
2023-04-26T13:51:34.866Z,14.13
2023-04-26T13:54:04.029Z,14.66
2023-04-26T13:56:32.979Z,14.95
2023-04-26T13:59:05.674Z,15.15
2023-04-26T14:01:36.983Z,15.74
2023-04-26T14:04:06.741Z,15.52
2023-04-26T14:06:36.385Z,15.15
2023-04-26T14:09:07.027Z,14.71
2023-04-26T14:11:36.047Z,14.65
2023-04-26T14:14:05.207Z,14.19
2023-04-26T14:16:35.466Z,13.98
2023-04-26T14:19:04.591Z,14.04
2023-04-26T14:21:33.261Z,13.79
2023-04-26T14:24:02.051Z,13.96
2023-04-26T14:26:30.960Z,14.24
2023-04-26T14:28:59.654Z,13.73
2023-04-26T14:31:30.436Z,13.79
2023-04-26T14:34:01.031Z,13.84
2023-04-26T14:36:29.799Z,13.48
2023-04-26T14:38:58.566Z,13.00
2023-04-26T14:41:27.529Z,13.01
2023-04-26T14:43:58.607Z,13.17
2023-04-26T14:46:27.297Z,13.17
2023-04-26T14:48:56.417Z,13.04
2023-04-26T14:51:27.366Z,13.01
2023-04-26T14:53:56.504Z,13.01
2023-04-26T14:56:25.276Z,13.63
2023-04-26T14:58:53.973Z,13.81
2023-04-26T15:01:23.081Z,13.77
2023-04-26T15:03:51.984Z,13.86
2023-04-26T15:06:20.809Z,14.32
2023-04-26T15:08:51.389Z,14.81
2023-04-26T15:11:20.039Z,14.92
2023-04-26T15:13:48.937Z,15.17
2023-04-26T15:16:17.929Z,15.08
2023-04-26T15:18:46.743Z,14.84
2023-04-26T15:21:17.735Z,14.84
2023-04-26T15:23:46.527Z,14.35
2023-04-26T15:26:16.965Z,13.78
2023-04-26T15:28:47.351Z,13.66
2023-04-26T15:31:16.395Z,13.87
2023-04-26T15:33:45.128Z,13.62
2023-04-26T15:36:13.752Z,13.51
2023-04-26T15:38:45.296Z,13.41
2023-04-26T15:41:14.194Z,13.21
2023-04-26T15:43:44.503Z,13.11
2023-04-26T15:46:14.555Z,13.00
2023-04-26T15:48:44.142Z,12.99
2023-04-26T15:51:12.843Z,13.29
2023-04-26T15:53:43.998Z,13.57
2023-04-26T15:56:16.461Z,13.83
2023-04-26T15:58:46.971Z,13.87
2023-04-26T16:01:16.155Z,13.62
2023-04-26T16:03:47.641Z,13.47
2023-04-26T16:06:16.790Z,13.09
2023-04-26T16:08:45.977Z,13.44
2023-04-26T16:11:14.634Z,13.87
2023-04-26T16:13:44.575Z,14.05
2023-04-26T16:16:15.090Z,14.25
2023-04-26T16:18:44.295Z,13.69
2023-04-26T16:21:13.630Z,13.24
2023-04-26T16:23:42.709Z,13.18
2023-04-26T16:26:11.990Z,13.29
2023-04-26T16:28:40.912Z,13.00
2023-04-26T16:31:09.692Z,13.30
2023-04-26T16:33:39.826Z,13.39
2023-04-26T16:36:10.196Z,13.42
2023-04-26T16:38:39.177Z,13.20
2023-04-26T16:41:08.102Z,13.35
2023-04-26T16:43:36.964Z,13.07
2023-04-26T16:46:06.654Z,13.01
2023-04-26T16:48:37.023Z,12.88
2023-04-26T16:51:08.188Z,12.77
2023-04-26T16:53:37.718Z,12.56
2023-04-26T16:56:07.442Z,12.47
2023-04-26T16:58:36.110Z,13.05
2023-04-26T17:01:05.095Z,12.97
2023-04-26T17:03:36.084Z,12.63
2023-04-26T17:06:07.822Z,12.86
2023-04-26T17:08:36.947Z,12.70
2023-04-26T17:11:06.059Z,13.01
2023-04-26T17:13:35.177Z,12.99
2023-04-26T17:16:05.764Z,12.87
2023-04-26T17:18:34.843Z,12.77
2023-04-26T17:21:03.887Z,12.91
2023-04-26T17:23:35.054Z,12.89
2023-04-26T17:26:04.892Z,12.57
2023-04-26T17:28:35.424Z,12.37
2023-04-26T17:31:06.139Z,12.57
2023-04-26T17:33:35.368Z,12.36
2023-04-26T17:36:04.774Z,12.50
2023-04-26T17:38:36.163Z,12.41
2023-04-26T17:41:05.980Z,12.29
2023-04-26T17:43:37.902Z,12.22
2023-04-26T17:46:07.449Z,12.24
2023-04-26T17:48:36.712Z,11.71
2023-04-26T17:51:07.133Z,11.66
2023-04-26T17:53:38.686Z,11.76
2023-04-26T17:56:10.732Z,11.75
2023-04-26T17:58:39.916Z,12.00
2023-04-26T18:01:09.459Z,11.88
2023-04-26T18:03:39.566Z,11.99
2023-04-26T18:06:08.905Z,11.91
2023-04-26T18:08:39.356Z,11.66
2023-04-26T18:11:08.185Z,11.75
2023-04-26T18:13:37.259Z,11.67
2023-04-26T18:16:06.676Z,11.30
2023-04-26T18:18:36.223Z,11.54
2023-04-26T18:21:07.253Z,11.39
2023-04-26T18:23:36.421Z,11.20
2023-04-26T18:26:06.281Z,11.50
2023-04-26T18:28:38.165Z,11.01
2023-04-26T18:31:08.233Z,10.96
2023-04-26T18:33:38.061Z,10.84
2023-04-26T18:36:09.022Z,11.13
2023-04-26T18:38:38.032Z,11.26
2023-04-26T18:41:15.229Z,11.42
2023-04-26T18:43:47.161Z,11.34
2023-04-26T18:46:18.350Z,11.36
2023-04-26T18:48:47.954Z,11.42
2023-04-26T18:51:20.972Z,11.23
2023-04-26T18:53:50.355Z,11.32
2023-04-26T18:56:21.636Z,11.19
2023-04-26T18:58:53.188Z,11.22
2023-04-26T19:01:24.369Z,11.37
2023-04-26T19:03:53.726Z,11.24
2023-04-26T19:06:24.355Z,11.27
2023-04-26T19:08:53.803Z,11.53
2023-04-26T19:11:24.309Z,11.48
2023-04-26T19:13:55.028Z,11.15
2023-04-26T19:16:24.688Z,11.12
2023-04-26T19:18:55.713Z,10.75
2023-04-26T19:21:25.444Z,10.98
2023-04-26T19:23:56.642Z,11.10
2023-04-26T19:26:27.748Z,11.03
2023-04-26T19:28:57.627Z,10.95
2023-04-26T19:31:27.653Z,11.29
2023-04-26T19:33:59.974Z,11.30
2023-04-26T19:36:32.103Z,11.31
2023-04-26T19:39:08.213Z,11.19
2023-04-26T19:41:39.374Z,11.36
2023-04-26T19:44:09.245Z,11.13
2023-04-26T19:46:38.558Z,11.02
2023-04-26T19:49:09.006Z,10.86
2023-04-26T19:51:38.938Z,10.74
2023-04-26T19:54:09.289Z,10.62
2023-04-26T19:56:41.760Z,10.59
2023-04-26T19:59:17.456Z,10.31
2023-04-26T20:01:46.859Z,10.75
2023-04-26T20:04:17.406Z,10.68
2023-04-26T20:06:48.852Z,10.70
2023-04-26T20:09:20.327Z,10.47
2023-04-26T20:11:52.519Z,10.40
2023-04-26T20:14:22.172Z,10.57
2023-04-26T20:16:52.268Z,10.49
2023-04-26T20:19:22.219Z,10.42
2023-04-26T20:21:52.277Z,10.57
2023-04-26T20:24:23.346Z,10.20
2023-04-26T20:26:54.830Z,10.33
2023-04-26T20:29:25.355Z,10.35
2023-04-26T20:31:54.626Z,10.36
2023-04-26T20:34:26.631Z,10.34
2023-04-26T20:36:56.738Z,10.36
2023-04-26T20:39:28.440Z,9.97
2023-04-26T20:41:59.409Z,9.82
2023-04-26T20:44:28.699Z,9.94
2023-04-26T20:46:58.433Z,9.95
2023-04-26T20:49:28.534Z,9.79
2023-04-26T20:51:58.297Z,9.86
2023-04-26T20:54:27.109Z,9.71
2023-04-26T20:56:55.900Z,9.50
2023-04-26T20:59:26.734Z,9.50
2023-04-26T21:01:55.830Z,9.47
2023-04-26T21:04:24.971Z,9.60
2023-04-26T21:06:54.432Z,9.62
2023-04-26T21:09:23.153Z,9.58
2023-04-26T21:11:52.090Z,9.54
2023-04-26T21:14:20.783Z,9.23
2023-04-26T21:16:50.795Z,9.33
2023-04-26T21:19:19.723Z,9.30
2023-04-26T21:21:48.695Z,9.03
2023-04-26T21:24:17.590Z,9.17
2023-04-26T21:26:46.538Z,9.33
2023-04-26T21:29:15.278Z,9.22
2023-04-26T21:31:44.200Z,9.08
2023-04-26T21:34:14.818Z,9.19
2023-04-26T21:36:43.462Z,9.02
2023-04-26T21:39:12.425Z,9.10
2023-04-26T21:41:41.964Z,9.03
2023-04-26T21:44:11.238Z,9.17
2023-04-26T21:46:40.152Z,8.98
2023-04-26T21:49:10.344Z,8.91
2023-04-26T21:51:40.798Z,9.01
2023-04-26T21:54:09.826Z,9.17
2023-04-26T21:56:38.517Z,9.04
2023-04-26T21:59:08.414Z,8.88
2023-04-26T22:01:37.428Z,8.89
2023-04-26T22:04:06.648Z,8.92
2023-04-26T22:06:35.602Z,8.82
2023-04-26T22:09:09.477Z,8.86
2023-04-26T22:11:38.892Z,8.76
2023-04-26T22:14:07.610Z,8.73
2023-04-26T22:16:36.399Z,8.69
2023-04-26T22:19:05.515Z,8.59
2023-04-26T22:21:34.254Z,8.70
2023-04-26T22:24:02.947Z,8.39
2023-04-26T22:26:33.292Z,8.47
2023-04-26T22:29:02.040Z,8.29
2023-04-26T22:31:30.808Z,8.05
2023-04-26T22:33:59.963Z,7.93
2023-04-26T22:36:28.694Z,8.08
2023-04-26T22:38:59.018Z,8.16
2023-04-26T22:41:28.020Z,8.11
2023-04-26T22:43:58.081Z,8.05
2023-04-26T22:46:27.000Z,8.06
2023-04-26T22:48:56.065Z,7.77
2023-04-26T22:51:27.093Z,7.86
2023-04-26T22:53:55.968Z,8.03
2023-04-26T22:56:24.633Z,8.06
2023-04-26T22:58:53.433Z,7.90
2023-04-26T23:01:23.807Z,7.87
2023-04-26T23:03:52.641Z,7.91
2023-04-26T23:06:21.498Z,8.00
2023-04-26T23:08:50.536Z,7.90
2023-04-26T23:11:19.727Z,7.74
2023-04-26T23:13:49.204Z,7.76
2023-04-26T23:16:18.197Z,7.82
2023-04-26T23:18:48.374Z,7.82
2023-04-26T23:21:17.061Z,7.61
2023-04-26T23:23:46.295Z,7.82
2023-04-26T23:26:15.053Z,7.79
2023-04-26T23:28:43.821Z,7.79
2023-04-26T23:31:12.894Z,7.90
2023-04-26T23:33:41.927Z,7.86
2023-04-26T23:36:12.120Z,7.53
2023-04-26T23:38:41.338Z,7.69
2023-04-26T23:41:10.090Z,7.72
2023-04-26T23:43:38.812Z,7.77
2023-04-26T23:46:07.844Z,7.75
2023-04-26T23:48:36.821Z,7.70
2023-04-26T23:51:06.179Z,7.72
2023-04-26T23:53:36.570Z,7.53
2023-04-26T23:56:06.389Z,7.62
2023-04-26T23:58:35.504Z,7.77
